»·PEaware :: DAL551 KSLC-KDEN

DAL551 :: KSLC-KDEN

FLIGHT INFORMATION

Flight Status: Arrived
Operator:
Delta Air Lines
More flights by this operator :: More flights under this callsign
Pilot: Drew L. (13237)
Aircraft: BOEING 757-200
(B752)
More flights by this aircraft type
Origin: KSLC Salt Lake City Intl
United States
Destination: KDEN Denver Intl
United States
More flights between these airports :: More routes between these airports
Route: NSIGN4 CHE FRNCH3
File this flight plan on PilotEdge
Remarks:
Altitude:
(Current/Filed)
31,000ft
Speed:
(Current/Filed)
134kts
Departed: 08-May-17 04:13 PM
Arrived: 08-May-17 05:17 PM
Distance/Time
Traveled:
339nm/1:04
Distance/Time
To Go:
Arrived

Flight Plot

Page will automatically refresh every two minutes.


Map Options




Map Legend


Flown Route
Filed Route
Departure Airport
Arrival Airport
Navaid (VOR, NDB)
Fix

Horizontal Profiles

Position Reports

Time Latitude Longitude Heading Altitude Ground
Speed
08-May-17 15:45 40.789298 -111.981627 169 4239ft 0kts
08-May-17 15:46 40.789298 -111.981627 169 4239ft 0kts
08-May-17 15:47 40.789298 -111.981627 169 4239ft 0kts
08-May-17 15:48 40.789298 -111.981627 169 4239ft 0kts
08-May-17 15:49 40.789298 -111.981627 169 4239ft 0kts
08-May-17 15:50 40.789298 -111.981627 169 4239ft 0kts
08-May-17 15:51 40.789298 -111.981627 169 4239ft 0kts
08-May-17 15:52 40.789298 -111.981627 169 4239ft 0kts
08-May-17 15:53 40.789298 -111.981627 169 4239ft 0kts
08-May-17 15:54 40.789298 -111.981627 169 4239ft 0kts
08-May-17 15:55 40.789298 -111.981627 169 4239ft 0kts
08-May-17 15:56 40.789298 -111.981627 169 4239ft 0kts
08-May-17 15:57 40.789298 -111.981627 169 4239ft 0kts
08-May-17 15:58 40.789298 -111.981627 169 4239ft 0kts
08-May-17 15:59 40.789298 -111.981627 169 4238ft 0kts
08-May-17 16:00 40.789298 -111.981627 169 4238ft 0kts
08-May-17 16:01 40.789298 -111.981627 169 4238ft 0kts
08-May-17 16:02 40.789298 -111.981627 169 4238ft 0kts
08-May-17 16:03 40.789298 -111.981627 169 4238ft 0kts
08-May-17 16:04 40.789298 -111.981627 169 4238ft 0kts
08-May-17 16:05 40.789545 -111.981690 168 4238ft 2kts
08-May-17 16:06 40.789978 -111.981963 85 4238ft 1kts
08-May-17 16:07 40.789966 -111.982056 75 4238ft 0kts
08-May-17 16:08 40.789966 -111.982056 75 4238ft 0kts
08-May-17 16:09 40.789966 -111.982056 75 4238ft 0kts
08-May-17 16:10 40.790017 -111.980230 81 4238ft 20kts
08-May-17 16:11 40.786242 -111.976650 174 4238ft 27kts
08-May-17 16:12 40.779278 -111.975690 159 4238ft 22kts
08-May-17 16:13 40.775647 -111.974642 121 4238ft 0kts
08-May-17 16:14 40.775750 -111.973395 35 4238ft 11kts
08-May-17 16:15 40.803043 -111.976439 348 5133ft 166kts
08-May-17 16:16 40.851251 -111.985410 351 8249ft 192kts
08-May-17 16:17 40.912088 -111.992789 352 9995ft 261kts
08-May-17 16:18 40.984438 -112.002706 351 13170ft 275kts
08-May-17 16:19 41.063648 -112.014788 2 16055ft 296kts
08-May-17 16:20 41.119270 -111.966091 41 18284ft 321kts
08-May-17 16:21 41.137860 -111.827946 101 21078ft 370kts
08-May-17 16:22 41.065882 -111.728984 150 23061ft 399kts
08-May-17 16:23 40.965558 -111.642351 134 23291ft 468kts
08-May-17 16:24 40.904889 -111.487735 94 25062ft 479kts
08-May-17 16:25 40.898033 -111.321204 92 27628ft 472kts
08-May-17 16:26 40.879814 -111.150625 94 29801ft 470kts
08-May-17 16:27 40.863036 -111.008846 94 31083ft 471kts
08-May-17 16:28 40.841745 -110.833006 95 31073ft 490kts
08-May-17 16:29 40.816289 -110.625581 95 31074ft 491kts
08-May-17 16:30 40.794173 -110.448724 95 31076ft 492kts
08-May-17 16:31 40.775677 -110.302284 95 31070ft 492kts
08-May-17 16:32 40.753028 -110.125111 95 30998ft 492kts
08-May-17 16:33 40.733698 -109.917078 90 30938ft 489kts
08-May-17 16:34 40.723419 -109.768780 91 30939ft 490kts
08-May-17 16:35 40.710489 -109.589739 91 30940ft 490kts
08-May-17 16:36 40.697344 -109.411681 91 30941ft 490kts
08-May-17 16:37 40.684162 -109.236935 91 30937ft 490kts
08-May-17 16:38 40.670447 -109.058610 91 30938ft 490kts
08-May-17 16:39 40.656534 -108.880991 91 30939ft 491kts
08-May-17 16:40 40.642252 -108.702769 92 30940ft 491kts
08-May-17 16:41 40.627686 -108.524883 92 31012ft 490kts
08-May-17 16:42 40.612910 -108.349271 92 31051ft 490kts
08-May-17 16:43 40.598095 -108.175175 92 31042ft 490kts
08-May-17 16:44 40.582655 -107.996695 92 30993ft 491kts
08-May-17 16:45 40.566960 -107.819081 91 30991ft 482kts
08-May-17 16:46 40.551307 -107.643917 91 30995ft 483kts
08-May-17 16:47 40.535404 -107.468786 91 30996ft 483kts
08-May-17 16:48 40.519809 -107.297656 90 31019ft 483kts
08-May-17 16:49 40.510858 -107.122764 89 31046ft 482kts
08-May-17 16:50 40.501300 -106.947488 89 31048ft 482kts
08-May-17 16:51 40.491569 -106.772024 90 31049ft 482kts
08-May-17 16:52 40.481475 -106.597009 89 30606ft 484kts
08-May-17 16:53 40.471143 -106.421047 89 28725ft 480kts
08-May-17 16:54 40.461302 -106.257508 90 26821ft 467kts
08-May-17 16:55 40.451026 -106.090604 90 24885ft 452kts
08-May-17 16:56 40.434386 -105.927829 97 24190ft 452kts
08-May-17 16:57 40.409092 -105.765422 97 24170ft 456kts
08-May-17 16:58 40.383891 -105.606839 97 24057ft 418kts
08-May-17 16:59 40.359357 -105.460231 105 24072ft 415kts
08-May-17 17:00 40.293179 -105.338457 128 22511ft 414kts
08-May-17 17:01 40.219802 -105.223157 128 20527ft 410kts
08-May-17 17:02 40.147126 -105.110253 129 18557ft 405kts
08-May-17 17:03 40.076042 -104.999094 128 16615ft 399kts
08-May-17 17:04 40.005719 -104.889583 129 14838ft 389kts
08-May-17 17:05 39.922672 -104.810927 175 13226ft 367kts
08-May-17 17:06 39.827790 -104.809761 180 12234ft 338kts
08-May-17 17:07 39.737116 -104.811845 181 11205ft 320kts
08-May-17 17:08 39.669933 -104.756105 100 10297ft 309kts
08-May-17 17:09 39.654480 -104.653906 98 10074ft 268kts
08-May-17 17:10 39.640324 -104.561280 97 9402ft 259kts
08-May-17 17:11 39.595083 -104.503273 193 8251ft 257kts
08-May-17 17:12 39.566355 -104.568892 266 8077ft 222kts
08-May-17 17:13 39.595308 -104.627618 327 8126ft 207kts
08-May-17 17:14 39.643297 -104.661881 356 8070ft 190kts
08-May-17 17:15 39.693203 -104.662135 356 8071ft 177kts
08-May-17 17:16 39.742659 -104.661713 359 7150ft 172kts
08-May-17 17:17 39.785006 -104.661154 359 6311ft 138kts
08-May-17 17:18 39.823607 -104.660546 0 5551ft 134kts
08-May-17 17:19 39.846997 -104.660500 350 5442ft 34kts
08-May-17 17:20 39.849778 -104.662084 330 5442ft 3kts
08-May-17 17:21 39.851377 -104.662400 0 5442ft 7kts
08-May-17 17:22 39.853740 -104.662383 0 5442ft 11kts
08-May-17 17:23 39.858381 -104.662349 359 5443ft 15kts
08-May-17 17:24 39.861054 -104.663636 270 5442ft 12kts
08-May-17 17:25 39.861575 -104.670270 319 5442ft 13kts
08-May-17 17:26 39.862494 -104.671545 359 5442ft 0kts

Navigation Log

Ident Type
1. KSLC Airport
2. WOMEX Fix
3. NSIGN Fix
4. COKKE Fix
5. CHEDO Fix
6. HERTS Fix
7. PERTY Fix
8. CHE Navaid
9. KDEN Airport